Alyeska Resort
Max's Hourly Weather Roundup
ALYESKA_MAX 9/26/2017
Click Here for Graph

        DATE  TIME   Air  Wind  Wind  Wind  BATT   Rel
                    Temp   Spd   Dir  Gust  Volt  Hum%
                      F   MPH   AVG   MPH   AVG   AVG

   9/26/2017 09:00    37     4   320     6 12.78    81
   9/26/2017 08:00    37     3   111     5 12.75    82
   9/26/2017 07:00    36     6    36    11 12.76    84
   9/26/2017 06:00    36     5    46    10 12.78    84
   9/26/2017 05:00    36     7    43    14 12.80    85
   9/26/2017 04:00    35     6    25    10 12.82    93
   9/26/2017 03:00    35     6    11     8 12.84    92
   9/26/2017 02:00    36     4   103     8 12.87    93
   9/26/2017 01:00    36     5    67    10 12.89    92
   9/25/2017 24:00    36     6    86    15 12.92    93
   9/25/2017 23:00    36     4   141    13 12.95    96
   9/25/2017 22:00    36     7   114    18 13.00    95
   9/25/2017 21:00    36     4   114    13 13.08    96
   9/25/2017 20:00    36     4   130    12 13.26    99
   9/25/2017 19:00    37     6   100    23 13.70    98
   9/25/2017 18:00    37     8   113    24 13.82    96
   9/25/2017 17:00    38     8   122    24 13.74    98
   9/25/2017 16:00    39    10   119    26 13.71    99
   9/25/2017 15:00    39     9   138    31 13.68   100
   9/25/2017 14:00    38     3   173    12 13.66   100
   9/25/2017 13:00    37     2   146    10 13.73   100
   9/25/2017 12:00    38     4   130    10 13.75   100
   9/25/2017 11:00    37     5   122    12 13.62   100
   9/25/2017 10:00    37     9   123    18 13.44    99


Click Here for Graph